createdAt,value
2022-12-29T00:02:32.032Z,7.95
2022-12-29T00:07:33.688Z,7.94
2022-12-29T00:12:53.867Z,7.76
2022-12-29T00:17:55.519Z,7.54
2022-12-29T00:23:15.731Z,7.43
2022-12-29T00:28:36.011Z,7.27
2022-12-29T00:33:56.158Z,7.20
2022-12-29T00:39:20.510Z,6.99
2022-12-29T00:44:22.114Z,7.09
2022-12-29T00:49:32.759Z,7.10
2022-12-29T00:54:37.726Z,7.19
2022-12-29T00:59:41.224Z,7.17
2022-12-29T01:04:42.830Z,7.13
2022-12-29T01:10:02.958Z,7.16
2022-12-29T01:15:05.041Z,7.23
2022-12-29T01:20:07.381Z,7.30
2022-12-29T01:25:10.570Z,7.20
2022-12-29T01:30:13.837Z,7.44
2022-12-29T01:35:15.864Z,7.46
2022-12-29T01:40:20.374Z,7.62
2022-12-29T01:45:22.597Z,7.77
2022-12-29T01:50:29.673Z,7.92
2022-12-29T01:55:35.290Z,8.04
2022-12-29T02:00:38.545Z,8.10
2022-12-29T02:05:46.978Z,8.19
2022-12-29T02:10:49.469Z,8.42
2022-12-29T02:15:57.663Z,8.62
2022-12-29T02:21:02.258Z,8.65
2022-12-29T02:26:28.774Z,8.84
2022-12-29T02:31:36.405Z,8.87
2022-12-29T02:37:06.217Z,8.94
2022-12-29T02:42:19.117Z,9.13
2022-12-29T02:47:20.664Z,9.13
2022-12-29T02:52:49.015Z,9.15
2022-12-29T02:58:14.491Z,9.15
2022-12-29T03:03:29.486Z,9.17
2022-12-29T03:08:31.811Z,9.16
2022-12-29T03:13:58.782Z,9.15
2022-12-29T03:19:26.688Z,9.20
2022-12-29T03:24:32.252Z,9.21
2022-12-29T03:29:40.526Z,9.22
2022-12-29T03:34:42.910Z,9.26
2022-12-29T03:39:45.253Z,9.26
2022-12-29T03:44:48.006Z,9.30
2022-12-29T03:49:51.753Z,9.32
2022-12-29T03:54:53.578Z,9.33
2022-12-29T03:59:55.413Z,9.42
2022-12-29T04:04:57.148Z,9.37
2022-12-29T04:09:59.084Z,9.36
2022-12-29T04:15:02.720Z,9.30
2022-12-29T04:20:24.079Z,9.27
2022-12-29T04:25:28.021Z,9.19
2022-12-29T04:30:29.742Z,9.19
2022-12-29T04:35:53.210Z,9.15
2022-12-29T04:40:56.741Z,9.14
2022-12-29T04:45:59.406Z,9.13
2022-12-29T04:51:06.963Z,9.14
2022-12-29T04:56:13.107Z,9.21
2022-12-29T05:01:14.965Z,9.27
2022-12-29T05:06:16.735Z,9.35
2022-12-29T05:11:18.596Z,9.35
2022-12-29T05:16:22.634Z,9.31
2022-12-29T05:21:24.623Z,9.25
2022-12-29T05:26:27.280Z,9.20
2022-12-29T05:31:34.600Z,9.25
2022-12-29T05:36:38.264Z,9.29
2022-12-29T05:41:42.301Z,9.20
2022-12-29T05:47:01.019Z,9.19
2022-12-29T05:52:18.110Z,9.20
2022-12-29T05:57:20.569Z,9.12
2022-12-29T06:02:30.114Z,9.14
2022-12-29T06:07:32.625Z,9.08
2022-12-29T06:12:35.201Z,8.99
2022-12-29T06:17:36.946Z,8.99
2022-12-29T06:22:39.730Z,9.06
2022-12-29T06:27:42.083Z,9.13
2022-12-29T06:32:44.225Z,9.22
2022-12-29T06:37:47.544Z,9.28
2022-12-29T06:42:49.212Z,9.34
2022-12-29T06:48:17.377Z,9.48
2022-12-29T06:53:18.991Z,9.50
2022-12-29T06:58:20.618Z,9.44
2022-12-29T07:03:22.301Z,9.33
2022-12-29T07:08:23.930Z,9.07
2022-12-29T07:13:25.587Z,8.88
2022-12-29T07:18:27.149Z,8.86
2022-12-29T07:23:28.795Z,8.67
2022-12-29T07:28:30.744Z,8.64
2022-12-29T07:33:33.634Z,8.66
2022-12-29T07:38:35.460Z,8.72
2022-12-29T07:43:37.100Z,8.75
2022-12-29T07:49:08.015Z,8.65
2022-12-29T07:54:10.101Z,8.58
2022-12-29T07:59:13.031Z,8.63
2022-12-29T08:04:14.646Z,8.71
2022-12-29T08:09:21.995Z,8.86
2022-12-29T08:14:24.692Z,9.02
2022-12-29T08:19:26.309Z,9.15
2022-12-29T08:24:28.030Z,9.12
2022-12-29T08:29:29.600Z,9.08
2022-12-29T08:34:32.708Z,9.16
2022-12-29T08:39:34.836Z,9.14
2022-12-29T08:44:36.423Z,9.16
2022-12-29T08:49:38.213Z,9.15
2022-12-29T08:54:39.877Z,9.21
2022-12-29T08:59:41.637Z,9.26
2022-12-29T09:04:46.133Z,9.44
2022-12-29T09:09:47.817Z,9.63
2022-12-29T09:14:49.447Z,9.73
2022-12-29T09:19:51.510Z,9.79
2022-12-29T09:24:53.121Z,10.01
2022-12-29T09:29:54.789Z,10.32
2022-12-29T09:34:56.361Z,10.35
2022-12-29T09:39:58.035Z,10.33
2022-12-29T09:45:05.860Z,10.59
2022-12-29T09:50:29.259Z,10.63
2022-12-29T09:55:40.657Z,10.63
2022-12-29T10:00:59.488Z,10.72
2022-12-29T10:06:22.446Z,10.79
2022-12-29T10:11:51.698Z,10.92
2022-12-29T10:17:14.874Z,10.90
2022-12-29T10:22:48.804Z,10.87
2022-12-29T10:27:52.883Z,11.02
2022-12-29T10:32:59.065Z,11.48
2022-12-29T10:38:19.539Z,11.63
2022-12-29T10:43:24.194Z,11.75
2022-12-29T10:48:34.834Z,12.09
2022-12-29T10:53:36.628Z,12.01
2022-12-29T10:58:38.655Z,11.56
2022-12-29T11:03:56.550Z,11.37
2022-12-29T11:09:03.517Z,11.26
2022-12-29T11:14:16.150Z,11.24
2022-12-29T11:19:27.738Z,11.27
2022-12-29T11:24:30.775Z,11.19
2022-12-29T11:29:43.871Z,11.15
2022-12-29T11:34:46.124Z,11.06
2022-12-29T11:40:09.282Z,11.08
2022-12-29T11:45:25.350Z,11.16
2022-12-29T11:50:33.949Z,11.23
2022-12-29T11:55:35.868Z,11.19
2022-12-29T12:00:41.347Z,11.26
2022-12-29T12:05:57.243Z,11.46
2022-12-29T12:11:08.134Z,11.77
2022-12-29T12:16:21.899Z,11.61
2022-12-29T12:21:30.780Z,11.64
2022-12-29T12:26:45.247Z,11.78
2022-12-29T12:31:54.322Z,12.52
2022-12-29T12:37:15.017Z,12.05
2022-12-29T12:42:32.090Z,12.77
2022-12-29T12:47:54.569Z,12.49
2022-12-29T12:53:20.934Z,11.95
2022-12-29T12:58:51.230Z,11.63
2022-12-29T13:04:08.356Z,11.53
2022-12-29T13:09:31.447Z,11.44
2022-12-29T13:14:53.003Z,11.44
2022-12-29T13:20:04.405Z,11.40
2022-12-29T13:25:23.014Z,11.42
2022-12-29T13:30:50.179Z,11.44
2022-12-29T13:36:30.506Z,11.44
2022-12-29T13:41:38.442Z,11.38
2022-12-29T13:46:44.088Z,11.32
2022-12-29T13:51:52.796Z,11.27
2022-12-29T13:57:08.008Z,11.26
2022-12-29T14:02:28.609Z,11.21
2022-12-29T14:07:38.393Z,11.14
2022-12-29T14:12:43.138Z,11.10
2022-12-29T14:17:45.634Z,10.87
2022-12-29T14:22:57.905Z,10.64
2022-12-29T14:27:59.760Z,10.08
2022-12-29T14:33:04.067Z,9.91
2022-12-29T14:38:21.212Z,10.07
2022-12-29T14:43:26.988Z,10.13
2022-12-29T14:48:37.330Z,10.15
2022-12-29T14:53:44.334Z,10.09
2022-12-29T14:59:00.428Z,10.03
2022-12-29T15:04:16.150Z,10.02
2022-12-29T15:09:37.434Z,9.94
2022-12-29T15:14:49.700Z,9.84
2022-12-29T15:19:51.814Z,9.79
2022-12-29T15:24:55.637Z,9.71
2022-12-29T15:30:00.385Z,9.61
2022-12-29T15:35:42.649Z,9.53
2022-12-29T15:40:46.085Z,9.49
2022-12-29T15:45:48.418Z,9.49
2022-12-29T15:50:52.140Z,9.46
2022-12-29T15:55:57.113Z,9.40
2022-12-29T16:01:03.446Z,9.38
2022-12-29T16:06:11.888Z,9.46
2022-12-29T16:11:39.405Z,9.50
2022-12-29T16:16:43.452Z,9.46
2022-12-29T16:21:46.639Z,9.47
2022-12-29T16:26:50.996Z,9.51
2022-12-29T16:32:01.313Z,9.44
2022-12-29T16:37:24.981Z,9.33
2022-12-29T16:42:42.442Z,9.25
2022-12-29T16:47:50.223Z,9.15
2022-12-29T16:52:52.140Z,9.08
2022-12-29T16:57:57.355Z,8.96
2022-12-29T17:03:01.990Z,8.94
2022-12-29T17:08:04.087Z,8.89
2022-12-29T17:13:06.237Z,8.85
2022-12-29T17:18:13.847Z,8.72
2022-12-29T17:23:22.815Z,8.65
2022-12-29T17:28:32.981Z,8.66
2022-12-29T17:33:40.182Z,8.53
2022-12-29T17:38:41.977Z,8.39
2022-12-29T17:43:43.777Z,8.36
2022-12-29T17:48:51.477Z,8.29
2022-12-29T17:53:55.364Z,8.31
2022-12-29T17:58:57.177Z,8.45
2022-12-29T18:03:59.002Z,8.50
2022-12-29T18:09:00.839Z,8.51
2022-12-29T18:14:02.696Z,8.57
2022-12-29T18:19:04.504Z,8.64
2022-12-29T18:24:06.706Z,8.67
2022-12-29T18:29:08.509Z,8.74
2022-12-29T18:34:15.419Z,8.75
2022-12-29T18:39:17.203Z,8.81
2022-12-29T18:44:20.429Z,8.99
2022-12-29T18:49:22.284Z,9.08
2022-12-29T18:54:33.479Z,9.04
2022-12-29T18:59:35.330Z,9.07
2022-12-29T19:04:37.162Z,9.21
2022-12-29T19:09:39.144Z,9.19
2022-12-29T19:14:41.068Z,9.15
2022-12-29T19:19:43.184Z,9.06
2022-12-29T19:24:45.108Z,8.99
2022-12-29T19:29:46.943Z,8.91
2022-12-29T19:34:49.030Z,8.77
2022-12-29T19:39:50.900Z,8.59
2022-12-29T19:44:52.843Z,8.40
2022-12-29T19:49:54.752Z,8.25
2022-12-29T19:54:56.715Z,8.21
2022-12-29T19:59:58.664Z,8.27
2022-12-29T20:05:00.979Z,8.22
2022-12-29T20:10:04.137Z,8.09
2022-12-29T20:15:07.911Z,8.01
2022-12-29T20:20:09.873Z,7.96
2022-12-29T20:25:43.786Z,7.92
2022-12-29T20:30:33.537Z,7.86
2022-12-29T20:35:35.819Z,7.70
2022-12-29T20:40:42.562Z,7.63
2022-12-29T20:45:48.895Z,7.51
2022-12-29T20:50:50.890Z,7.42
2022-12-29T20:55:54.161Z,7.36
2022-12-29T21:00:56.287Z,7.31
2022-12-29T21:06:00.083Z,7.24
2022-12-29T21:11:04.026Z,7.20
2022-12-29T21:16:09.681Z,7.18
2022-12-29T21:21:23.098Z,7.13
2022-12-29T21:26:24.952Z,7.05
2022-12-29T21:31:33.299Z,6.93
2022-12-29T21:36:35.660Z,6.88
2022-12-29T21:41:37.502Z,6.94
2022-12-29T21:46:40.948Z,7.06
2022-12-29T21:51:52.328Z,7.05
2022-12-29T21:56:54.301Z,7.03
2022-12-29T22:02:15.319Z,7.10
2022-12-29T22:07:35.609Z,7.08
2022-12-29T22:12:56.531Z,7.08
2022-12-29T22:17:59.385Z,7.04
2022-12-29T22:23:02.283Z,7.05
2022-12-29T22:28:05.480Z,7.05
2022-12-29T22:33:07.507Z,7.03
2022-12-29T22:38:09.285Z,6.93
2022-12-29T22:43:13.217Z,6.95
2022-12-29T22:48:15.306Z,6.90
2022-12-29T22:53:17.101Z,6.89
2022-12-29T22:58:18.898Z,6.86
2022-12-29T23:03:20.892Z,7.00
2022-12-29T23:08:22.844Z,7.15
2022-12-29T23:13:24.705Z,7.15
2022-12-29T23:18:27.523Z,7.06
2022-12-29T23:23:49.453Z,7.15
2022-12-29T23:28:59.539Z,7.10
2022-12-29T23:34:03.676Z,7.07
2022-12-29T23:39:06.319Z,7.10
2022-12-29T23:44:08.173Z,7.18
2022-12-29T23:49:10.097Z,7.15
2022-12-29T23:54:12.018Z,7.15
2022-12-29T23:59:13.827Z,7.20
